Time;durP1;ratioP1;P1;durP2;ratioP2;P2;SDS_P1;SDS_P2;PMS_P1;PMS_P2;Temp;Humidity;BMP_temperature;BMP_pressure;BME280_temperature;BME280_humidity;BME280_pressure;Samples;Min_cycle;Max_cycle;Signal;HPM_P1;HPM_P2
2022/09/17 00:01:18;;;;;;;12.88;2.38;;;;;;;10.40;100.00;101178.09;4989639;28;20061;-80
2022/09/17 00:03:44;;;;;;;12.02;2.13;;;;;;;10.41;100.00;101187.88;4991937;28;20105;-81
2022/09/17 00:06:11;;;;;;;15.18;2.65;;;;;;;10.38;100.00;101189.13;4993954;28;20018;-79
2022/09/17 00:08:38;;;;;;;9.43;2.40;;;;;;;10.39;100.00;101187.28;4992497;28;20061;-80
2022/09/17 00:11:09;;;;;;;11.93;2.53;;;;;;;10.39;100.00;101188.09;4992658;28;20030;-78
2022/09/17 00:13:35;;;;;;;9.82;2.10;;;;;;;10.43;100.00;101202.84;4993994;28;20030;-80
2022/09/17 00:16:01;;;;;;;10.00;2.70;;;;;;;10.41;100.00;101204.94;4993569;28;20022;-79
2022/09/17 00:18:26;;;;;;;10.63;2.83;;;;;;;10.37;100.00;101202.88;4993732;28;20101;-79
2022/09/17 00:20:52;;;;;;;9.73;2.40;;;;;;;10.36;100.00;101202.06;4993914;28;20026;-80
2022/09/17 00:23:17;;;;;;;10.23;2.20;;;;;;;10.36;100.00;101204.75;4992605;28;20062;-79
2022/09/17 00:25:44;;;;;;;9.32;2.33;;;;;;;10.33;100.00;101198.94;4992513;28;20031;-79
2022/09/17 00:28:12;;;;;;;13.35;3.03;;;;;;;10.36;100.00;101198.53;4993565;28;20086;-79
2022/09/17 00:30:41;;;;;;;9.00;2.45;;;;;;;10.33;100.00;101193.50;4993738;28;20026;-80
2022/09/17 00:33:10;;;;;;;12.43;2.78;;;;;;;10.32;100.00;101200.78;4992928;28;20469;-79
2022/09/17 00:35:35;;;;;;;10.13;2.40;;;;;;;10.32;100.00;101200.78;4992267;28;20026;-80
2022/09/17 00:38:00;;;;;;;11.88;2.45;;;;;;;10.37;100.00;101203.72;4992186;28;20540;-80
2022/09/17 00:40:26;;;;;;;9.90;2.00;;;;;;;10.40;100.00;101205.13;4992361;28;20026;-79
2022/09/17 00:42:52;;;;;;;8.85;2.20;;;;;;;10.45;100.00;101206.16;4993314;28;20023;-79
2022/09/17 00:45:18;;;;;;;8.23;1.92;;;;;;;10.45;100.00;101214.28;4992982;28;20064;-78
2022/09/17 00:47:54;;;;;;;12.30;2.13;;;;;;;10.48;100.00;101220.28;4992557;28;20470;-81
2022/09/17 00:50:31;;;;;;;21.45;3.17;;;;;;;10.49;100.00;101206.56;4992965;28;20057;-79
2022/09/17 00:53:20;;;;;;;11.40;2.30;;;;;;;10.53;100.00;101209.69;4993457;28;20465;-80
2022/09/17 00:56:00;;;;;;;11.10;2.53;;;;;;;10.53;100.00;101209.69;4992126;28;20026;-80
2022/09/17 00:58:26;;;;;;;15.65;3.08;;;;;;;10.53;100.00;101217.78;4992261;28;20022;-80
2022/09/17 01:00:51;;;;;;;15.73;2.63;;;;;;;10.54;100.00;101217.56;5004961;28;20026;-79
2022/09/17 01:03:17;;;;;;;16.90;2.00;;;;;;;10.55;100.00;101213.84;4995634;28;20393;-80
2022/09/17 01:05:49;;;;;;;9.73;2.33;;;;;;;10.54;100.00;101220.28;5012060;28;20049;-79
2022/09/17 01:08:43;;;;;;;10.35;2.25;;;;;;;10.60;100.00;101224.00;4995054;28;20030;-80
2022/09/17 01:11:26;;;;;;;10.00;2.13;;;;;;;10.55;100.00;101218.41;5012304;28;20025;-80
2022/09/17 01:14:19;;;;;;;11.18;2.42;;;;;;;10.60;100.00;101222.13;5012689;28;20034;-80
2022/09/17 01:17:16;;;;;;;15.95;3.55;;;;;;;10.60;100.00;101218.59;5012803;28;20026;-80
2022/09/17 01:20:07;;;;;;;13.57;2.58;;;;;;;10.61;100.00;101221.09;5012802;28;20105;-78
2022/09/17 01:22:32;;;;;;;8.50;2.05;;;;;;;10.57;100.00;101213.63;5011825;28;20024;-79
2022/09/17 01:25:11;;;;;;;11.75;2.33;;;;;;;10.54;100.00;101217.56;5012582;28;20030;-80
2022/09/17 01:28:08;;;;;;;12.82;3.35;;;;;;;10.60;100.00;101237.53;5011517;28;20385;-80
2022/09/17 01:30:37;;;;;;;13.18;2.53;;;;;;;10.62;100.00;101230.03;5008236;28;20034;-80
2022/09/17 01:33:16;;;;;;;10.93;2.38;;;;;;;10.63;100.00;101235.22;5011243;28;20033;-80
2022/09/17 01:35:57;;;;;;;11.60;2.50;;;;;;;10.64;100.00;101236.03;5012716;28;20072;-80
2022/09/17 01:38:22;;;;;;;14.40;2.55;;;;;;;10.67;100.00;101229.38;4994449;28;20053;-80
2022/09/17 01:41:14;;;;;;;9.95;2.50;;;;;;;10.69;100.00;101248.94;5012561;28;20052;-78
2022/09/17 01:43:43;;;;;;;11.48;2.42;;;;;;;10.67;100.00;101232.09;5009508;28;20022;-80
2022/09/17 01:46:34;;;;;;;8.82;2.03;;;;;;;10.72;100.00;101238.50;4976503;28;20026;-80
2022/09/17 01:49:03;;;;;;;10.27;2.42;;;;;;;10.68;100.00;101247.28;4996762;28;20101;-79
2022/09/17 01:51:39;;;;;;;11.55;2.17;;;;;;;10.68;100.00;101244.56;4996629;28;20065;-79
2022/09/17 01:54:29;;;;;;;15.55;2.88;;;;;;;10.72;100.00;101252.06;4979062;28;20033;-78
2022/09/17 01:57:08;;;;;;;9.48;2.05;;;;;;;10.68;100.00;101239.97;4996523;28;20553;-79
2022/09/17 01:59:39;;;;;;;12.75;2.40;;;;;;;10.66;100.00;101243.94;4978811;28;20585;-78
2022/09/17 02:02:14;;;;;;;11.50;2.38;;;;;;;10.68;100.00;101248.09;5017100;28;20045;-80
2022/09/17 02:04:45;;;;;;;11.90;2.80;;;;;;;10.62;100.00;101243.56;5035769;28;20479;-79
2022/09/17 02:07:19;;;;;;;14.32;2.53;;;;;;;10.57;100.00;101236.09;5026852;28;20030;-80
2022/09/17 02:09:58;;;;;;;11.20;2.15;;;;;;;10.61;100.00;101247.31;5035453;28;20019;-80
2022/09/17 02:12:30;;;;;;;8.43;2.28;;;;;;;10.54;100.00;101236.53;5035814;28;20518;-80
2022/09/17 02:14:59;;;;;;;10.70;2.40;;;;;;;10.52;100.00;101232.34;5017596;28;20026;-79
2022/09/17 02:17:45;;;;;;;14.80;2.25;;;;;;;10.55;100.00;101243.59;5017315;28;20029;-78
2022/09/17 02:20:12;;;;;;;10.05;2.35;;;;;;;10.57;100.00;101240.69;5035220;28;20025;-79
2022/09/17 02:22:58;;;;;;;13.13;2.20;;;;;;;10.59;100.00;101241.28;5016870;28;20132;-80
2022/09/17 02:25:43;;;;;;;13.93;2.55;;;;;;;10.58;100.00;101240.47;5034938;28;20013;-80
2022/09/17 02:28:39;;;;;;;11.82;2.30;;;;;;;10.61;100.00;101247.31;5034185;28;20025;-80
2022/09/17 02:31:05;;;;;;;9.73;1.92;;;;;;;10.56;100.00;101244.41;5017278;28;20476;-79
2022/09/17 02:33:32;;;;;;;9.55;2.13;;;;;;;10.57;100.00;101248.81;5034956;28;20057;-79
2022/09/17 02:35:57;;;;;;;14.85;2.40;;;;;;;10.53;100.00;101242.16;5034867;28;20350;-79
2022/09/17 02:38:27;;;;;;;11.85;2.40;;;;;;;10.51;100.00;101246.94;5034918;28;20025;-79
2022/09/17 02:41:05;;;;;;;12.68;2.53;;;;;;;10.51;100.00;101257.75;5034820;28;20022;-79
2022/09/17 02:43:55;;;;;;;14.32;2.28;;;;;;;10.52;100.00;101262.13;5034591;28;20416;-79
2022/09/17 02:46:53;;;;;;;15.10;2.65;;;;;;;10.49;100.00;101260.66;5033580;28;20026;-79
2022/09/17 02:49:48;;;;;;;11.90;2.35;;;;;;;10.48;100.00;101263.59;5034773;28;20379;-78
2022/09/17 02:52:30;;;;;;;9.48;2.30;;;;;;;10.46;100.00;101271.91;4999170;28;20522;-79
2022/09/17 02:55:23;;;;;;;11.75;2.55;;;;;;;10.45;100.00;101265.69;5014808;28;20053;-78
2022/09/17 02:57:55;;;;;;;14.02;2.30;;;;;;;10.43;100.00;101259.66;4989231;28;20022;-77
2022/09/17 03:00:22;;;;;;;7.82;2.05;;;;;;;10.39;100.00;101271.97;5014240;28;20022;-78
2022/09/17 03:02:52;;;;;;;9.15;2.10;;;;;;;10.35;100.00;101270.72;5029946;28;20540;-79
2022/09/17 03:05:20;;;;;;;9.77;2.30;;;;;;;10.31;100.00;101264.06;5032869;28;20037;-79
2022/09/17 03:07:45;;;;;;;10.43;2.42;;;;;;;10.31;100.00;101261.34;5034517;28;20476;-79
2022/09/17 03:10:12;;;;;;;11.05;2.15;;;;;;;10.30;100.00;101262.38;5034473;28;20025;-79
2022/09/17 03:12:38;;;;;;;12.20;2.42;;;;;;;10.30;100.00;101256.97;5048478;28;20022;-78
2022/09/17 03:15:04;;;;;;;11.18;2.00;;;;;;;10.27;100.00;101258.22;5027998;28;20026;-79
2022/09/17 03:17:30;;;;;;;10.77;2.05;;;;;;;10.26;100.00;101256.56;5033912;28;20168;-79
2022/09/17 03:19:55;;;;;;;10.77;2.20;;;;;;;10.26;100.00;101256.56;5034245;28;20478;-80
2022/09/17 03:22:20;;;;;;;9.20;2.15;;;;;;;10.27;100.00;101258.22;5016084;28;20013;-80
2022/09/17 03:24:46;;;;;;;13.98;2.08;;;;;;;10.25;100.00;101263.03;5034009;28;20032;-79
2022/09/17 03:27:11;;;;;;;16.85;2.10;;;;;;;10.25;100.00;101257.63;5033672;28;20025;-80
2022/09/17 03:29:36;;;;;;;7.95;1.63;;;;;;;10.22;100.00;101251.78;5018952;28;20377;-79
2022/09/17 03:32:02;;;;;;;13.70;2.38;;;;;;;10.25;100.00;101260.31;5014408;28;20107;-80
2022/09/17 03:34:27;;;;;;;9.30;2.13;;;;;;;10.29;100.00;101249.91;5014226;28;20018;-80
2022/09/17 03:36:52;;;;;;;8.02;2.00;;;;;;;10.32;100.00;101248.66;5014335;28;20026;-79
2022/09/17 03:39:18;;;;;;;10.07;2.28;;;;;;;10.33;100.00;101259.28;5014007;28;20029;-79
2022/09/17 03:41:43;;;;;;;14.63;2.38;;;;;;;10.33;100.00;101259.28;5013868;28;20100;-79
2022/09/17 03:44:09;;;;;;;9.10;2.15;;;;;;;10.32;100.00;101257.59;5014074;28;20053;-78
2022/09/17 03:46:35;;;;;;;13.88;2.17;;;;;;;10.30;100.00;101254.28;5013951;28;20068;-80
2022/09/17 03:49:00;;;;;;;9.75;1.58;;;;;;;10.28;100.00;101249.06;4999191;28;20418;-80
2022/09/17 03:51:26;;;;;;;11.75;2.30;;;;;;;10.29;100.00;101255.31;5013826;28;20065;-79
2022/09/17 03:53:51;;;;;;;11.10;2.30;;;;;;;10.28;100.00;101257.19;5013913;28;20022;-79
2022/09/17 03:56:16;;;;;;;12.05;2.08;;;;;;;10.25;100.00;101263.03;5013422;28;20163;-78
2022/09/17 03:58:42;;;;;;;10.77;1.88;;;;;;;10.25;100.00;101267.59;5025458;28;20085;-78
2022/09/17 04:01:07;;;;;;;8.57;1.70;;;;;;;10.22;100.00;101262.59;5029592;28;20102;-78
2022/09/17 04:03:32;;;;;;;10.07;2.05;;;;;;;10.20;100.00;101262.00;5030222;28;20485;-78
2022/09/17 04:05:58;;;;;;;9.68;1.88;;;;;;;10.18;100.00;101264.09;5053483;28;20045;-78
2022/09/17 04:08:24;;;;;;;12.98;2.20;;;;;;;10.15;100.00;101264.53;5034676;28;20028;-79
2022/09/17 04:10:50;;;;;;;10.20;1.95;;;;;;;10.11;100.00;101264.94;5044063;28;20030;-78
2022/09/17 04:13:17;;;;;;;10.18;3.42;;;;;;;10.10;100.00;101262.44;5033840;28;20021;-79
2022/09/17 04:15:43;;;;;;;10.18;1.92;;;;;;;10.05;100.00;101279.28;5043503;28;20040;-79
2022/09/17 04:18:09;;;;;;;9.40;2.05;;;;;;;10.05;100.00;101270.34;5050268;28;20466;-79
2022/09/17 04:20:34;;;;;;;10.65;2.30;;;;;;;10.03;100.00;101273.25;5032597;28;20029;-79
2022/09/17 04:23:00;;;;;;;9.98;1.88;;;;;;;10.04;100.00;101280.34;5016117;28;20025;-79
2022/09/17 04:25:29;;;;;;;8.07;1.80;;;;;;;10.03;100.00;101283.25;5032955;28;20029;-79
2022/09/17 04:27:54;;;;;;;10.07;2.28;;;;;;;10.05;100.00;101275.75;5014585;28;20044;-79
2022/09/17 04:30:19;;;;;;;8.18;1.85;;;;;;;10.00;100.00;101267.47;5033574;28;20024;-79
2022/09/17 04:32:45;;;;;;;12.45;1.90;;;;;;;10.01;100.00;101282.63;5032894;28;20124;-79
2022/09/17 04:35:11;;;;;;;9.95;1.88;;;;;;;9.98;100.00;101274.94;5035389;28;20484;-79
2022/09/17 04:37:37;;;;;;;8.43;1.70;;;;;;;9.94;100.00;101271.84;5036326;28;20449;-79
2022/09/17 04:40:03;;;;;;;8.77;1.90;;;;;;;9.89;100.00;101271.63;5014785;28;20068;-77
2022/09/17 04:42:29;;;;;;;11.07;2.20;;;;;;;10.00;100.00;101289.09;5047341;28;20033;-77
2022/09/17 04:44:54;;;;;;;12.23;2.08;;;;;;;10.01;100.00;101297.00;5015088;28;20021;-77
2022/09/17 04:47:19;;;;;;;9.93;2.15;;;;;;;10.00;100.00;101289.91;5025121;28;20017;-77
2022/09/17 04:49:45;;;;;;;10.48;1.70;;;;;;;9.97;100.00;101294.91;5033981;28;20029;-75
2022/09/17 04:52:10;;;;;;;9.38;2.10;;;;;;;9.95;100.00;101281.63;5015009;28;20364;-75
2022/09/17 04:54:35;;;;;;;10.70;2.17;;;;;;;9.93;100.00;101279.13;5032547;28;20030;-85
2022/09/17 04:57:01;;;;;;;10.15;2.30;;;;;;;9.89;100.00;101266.22;5033042;28;20017;-78
2022/09/17 04:59:26;;;;;;;11.98;2.05;;;;;;;9.92;100.00;101272.03;5052132;28;20032;-76
2022/09/17 05:01:51;;;;;;;15.15;3.17;;;;;;;9.91;100.00;101270.38;5036299;28;20140;-77
2022/09/17 05:04:17;;;;;;;9.98;2.53;;;;;;;9.93;100.00;101283.69;5031895;28;20096;-78
2022/09/17 05:06:42;;;;;;;9.10;2.10;;;;;;;9.98;100.00;101283.91;5018034;28;20617;-77
2022/09/17 05:09:07;;;;;;;13.95;2.25;;;;;;;10.02;100.00;101281.59;5052167;28;20467;-77
2022/09/17 05:11:34;;;;;;;12.75;2.20;;;;;;;10.03;100.00;101284.09;5034765;28;20061;-77
2022/09/17 05:13:59;;;;;;;12.32;2.10;;;;;;;10.03;100.00;101289.50;5032223;28;20052;-77
2022/09/17 05:16:25;;;;;;;15.85;3.10;;;;;;;10.06;100.00;101291.78;5030880;28;20447;-77
2022/09/17 05:18:50;;;;;;;13.32;2.85;;;;;;;10.04;100.00;101288.47;5032504;28;20461;-77
2022/09/17 05:21:16;;;;;;;12.48;2.28;;;;;;;10.03;100.00;101294.91;5035990;28;20361;-77
2022/09/17 05:23:41;;;;;;;11.45;2.15;;;;;;;10.03;100.00;101299.47;5018650;28;20025;-78
2022/09/17 05:26:07;;;;;;;11.88;2.10;;;;;;;10.00;100.00;101300.72;5036237;28;20346;-77
2022/09/17 05:28:33;;;;;;;13.55;2.30;;;;;;;9.97;100.00;101300.31;5035150;28;20034;-77
2022/09/17 05:30:58;;;;;;;9.88;2.25;;;;;;;9.98;100.00;101301.97;5018507;28;20036;-77
2022/09/17 05:33:24;;;;;;;11.85;2.30;;;;;;;9.97;100.00;101311.13;5018071;28;20021;-77
2022/09/17 05:35:49;;;;;;;11.93;2.33;;;;;;;9.95;100.00;101303.25;5018399;28;20031;-78
2022/09/17 05:38:14;;;;;;;17.58;2.55;;;;;;;9.95;100.00;101311.34;5018515;28;20368;-77
2022/09/17 05:40:40;;;;;;;10.85;2.05;;;;;;;9.91;100.00;101307.41;5034967;28;20029;-78
2022/09/17 05:43:06;;;;;;;12.93;2.63;;;;;;;9.90;100.00;101305.72;5036087;28;20029;-77
2022/09/17 05:45:33;;;;;;;12.80;2.17;;;;;;;9.88;100.00;101315.94;5035774;28;20029;-77
2022/09/17 05:48:00;;;;;;;11.45;1.92;;;;;;;9.83;100.00;101310.28;5035782;28;20465;-77
2022/09/17 05:50:26;;;;;;;14.60;2.50;;;;;;;9.83;100.00;101318.41;5035764;28;20026;-77
2022/09/17 05:52:52;;;;;;;12.93;2.40;;;;;;;9.76;100.00;101313.84;5036007;28;20062;-77
2022/09/17 05:55:19;;;;;;;10.65;2.08;;;;;;;9.81;100.00;101321.31;5035889;28;20407;-77
2022/09/17 05:57:44;;;;;;;10.48;2.20;;;;;;;9.79;100.00;101323.41;5035722;28;20033;-77
2022/09/17 06:00:10;;;;;;;14.88;2.33;;;;;;;9.79;100.00;101331.50;5034497;28;20086;-78
2022/09/17 06:02:36;;;;;;;10.48;2.45;;;;;;;9.80;100.00;101338.59;4995083;28;20042;-78
2022/09/17 06:05:02;;;;;;;10.05;2.80;;;;;;;9.82;100.00;101346.50;5015487;28;20470;-77
2022/09/17 06:37:06;;;;;;;;;;;;;;;;;;;;;
2022/09/17 06:39:41;;;;;;;11.50;2.03;;;;;;;9.84;100.00;101333.59;4840659;29;20049;-76
2022/09/17 06:53:11;;;;;;;8.98;1.80;;;;;;;9.93;100.00;101338.59;4813400;29;20098;-76
2022/09/17 06:55:36;;;;;;;8.40;1.90;;;;;;;9.96;100.00;101337.31;4810089;29;20045;-77
2022/09/17 06:58:02;;;;;;;9.38;1.67;;;;;;;9.98;100.00;101335.25;5029965;28;20029;-80
2022/09/17 07:03:41;;;;;;;11.82;1.75;;;;;;;10.04;100.00;101344.38;5003993;28;20132;-76
2022/09/17 07:06:09;;;;;;;9.88;1.88;;;;;;;10.07;100.00;101343.97;4997108;28;20032;-76
2022/09/17 07:08:34;;;;;;;8.88;1.85;;;;;;;10.15;100.00;101341.06;5013697;28;20060;-75
2022/09/17 07:11:00;;;;;;;6.85;1.63;;;;;;;10.18;100.00;101340.63;5014515;28;20418;-77
2022/09/17 07:13:25;;;;;;;14.95;2.40;;;;;;;10.24;100.00;101350.63;4996926;28;20025;-77
2022/09/17 07:15:58;;;;;;;10.35;1.95;;;;;;;10.30;100.00;101351.66;4996140;28;20034;-77
2022/09/17 07:18:27;;;;;;;9.57;2.25;;;;;;;10.37;100.00;101351.66;5014645;28;20018;-77
2022/09/17 07:20:57;;;;;;;15.00;2.70;;;;;;;10.41;100.00;101356.44;4996861;28;20049;-77
2022/09/17 07:23:24;;;;;;;6.32;2.20;;;;;;;10.49;100.00;101359.97;5014320;28;20018;-77
2022/09/17 07:25:54;;;;;;;11.38;2.35;;;;;;;10.53;100.00;101367.44;5014375;28;20056;-76
2022/09/17 07:28:21;;;;;;;8.48;2.15;;;;;;;10.56;100.00;101363.50;4996908;28;20511;-77
2022/09/17 07:30:46;;;;;;;13.70;2.25;;;;;;;10.63;100.00;101359.72;4997258;28;20083;-76
2022/09/17 07:33:12;;;;;;;12.73;2.22;;;;;;;10.69;100.00;101358.03;4996595;28;20026;-77
2022/09/17 07:35:37;;;;;;;10.93;2.28;;;;;;;10.76;100.00;101358.84;5014131;28;20029;-76
2022/09/17 07:38:05;;;;;;;15.80;2.67;;;;;;;10.82;100.00;101359.84;5012817;28;20369;-77
2022/09/17 07:40:30;;;;;;;8.98;1.95;;;;;;;10.86;100.00;101363.81;5013491;28;20445;-74
2022/09/17 07:43:02;;;;;;;12.98;2.17;;;;;;;10.93;100.00;101361.91;5013677;28;20036;-80
2022/09/17 07:45:28;;;;;;;6.88;1.88;;;;;;;10.99;100.00;101354.78;5012995;28;20021;-77
2022/09/17 07:47:53;;;;;;;10.50;1.58;;;;;;;11.06;100.00;101352.88;4996470;28;20036;-76
2022/09/17 07:50:38;;;;;;;;;;;;;;;;;;;;;
2022/09/17 07:53:32;;;;;;;9.07;2.15;;;;;;;11.13;100.00;101350.97;5033857;28;20037;-77
2022/09/17 07:56:00;;;;;;;8.32;1.38;;;;;;;11.10;100.00;101340.56;5026453;28;20115;-77
2022/09/17 07:58:32;;;;;;;6.75;1.58;;;;;;;11.15;100.00;101361.59;5003070;28;20033;-77
2022/09/17 08:01:25;;;;;;;7.00;1.58;;;;;;;11.10;100.00;101351.41;5031441;28;20026;-77
2022/09/17 08:11:00;;;;;;;7.35;1.67;;;;;;;11.21;100.00;101344.47;5030353;28;20068;-78
2022/09/17 08:14:05;;;;;;;9.38;1.70;;;;;;;11.34;100.00;101359.84;5032671;28;20022;-77
2022/09/17 08:16:31;;;;;;;8.93;1.70;;;;;;;11.34;100.00;101346.28;4971606;28;20034;-76
2022/09/17 08:19:34;;;;;;;9.23;1.85;;;;;;;11.48;100.00;101360.56;4971618;28;20053;-79
2022/09/17 08:22:40;;;;;;;10.70;2.33;;;;;;;11.45;100.00;101358.31;4952475;29;20074;-77
2022/09/17 08:28:30;;;;;;;9.02;1.80;;;;;;;11.51;100.00;101352.00;4952887;29;20079;-78
2022/09/17 08:31:09;;;;;;;7.28;1.65;;;;;;;11.56;100.00;101354.06;4952624;29;20031;-79
2022/09/17 08:33:37;;;;;;;5.72;1.40;;;;;;;11.60;100.00;101352.56;4967970;28;20435;-77
2022/09/17 08:36:04;;;;;;;10.25;1.50;;;;;;;11.67;100.00;101358.75;4997386;28;20103;-78
2022/09/17 08:38:34;;;;;;;6.90;2.00;;;;;;;11.66;100.00;101355.22;5017629;28;20130;-76
2022/09/17 08:41:10;;;;;;;7.88;1.90;;;;;;;11.73;100.00;101363.34;5031288;28;20021;-78
2022/09/17 08:44:06;;;;;;;9.13;1.45;;;;;;;11.82;100.00;101361.16;5013188;28;20461;-78
2022/09/17 08:47:00;;;;;;;11.20;1.83;;;;;;;11.84;100.00;101356.34;5032714;28;20026;-78
2022/09/17 08:49:35;;;;;;;7.43;1.85;;;;;;;11.88;100.00;101358.41;5032958;28;20029;-79
2022/09/17 08:52:22;;;;;;;7.00;1.48;;;;;;;11.97;100.00;101366.28;5031828;28;20457;-78
2022/09/17 08:55:16;;;;;;;9.07;1.60;;;;;;;12.06;100.00;101373.09;5024417;28;20076;-77
2022/09/17 08:58:12;;;;;;;6.88;1.92;;;;;;;12.07;100.00;101366.63;5032514;28;20025;-78
2022/09/17 09:01:01;;;;;;;6.65;1.40;;;;;;;12.12;100.00;101369.47;4999600;28;20133;-79
2022/09/17 09:04:01;;;;;;;7.38;1.58;;;;;;;12.20;100.00;101373.81;5032199;28;20040;-78
2022/09/17 09:06:45;;;;;;;7.03;1.33;;;;;;;12.24;100.00;101380.44;5032473;28;20099;-78
2022/09/17 09:09:15;;;;;;;6.80;1.20;;;;;;;12.25;100.00;101375.88;5021688;28;20471;-77
2022/09/17 09:11:42;;;;;;;7.57;1.45;;;;;;;12.26;100.00;101382.94;5031232;28;20037;-79
2022/09/17 09:14:54;;;;;;;5.97;1.40;;;;;;;12.30;100.00;101387.69;5014733;28;20079;-79
2022/09/17 09:17:24;;;;;;;7.90;1.50;;;;;;;12.22;100.00;101385.28;4971146;28;20072;-77
2022/09/17 09:19:51;;;;;;;9.48;1.50;;;;;;;12.22;100.00;101377.94;4970576;28;20038;-78
2022/09/17 09:22:39;;;;;;;9.77;1.60;;;;;;;12.19;100.00;101383.81;5005080;28;20033;-78
2022/09/17 09:25:19;;;;;;;4.80;1.35;;;;;;;12.19;100.00;101378.41;5014455;28;20029;-78
2022/09/17 09:28:05;;;;;;;8.23;1.75;;;;;;;12.19;100.00;101378.41;5030786;28;20481;-75
2022/09/17 09:30:46;;;;;;;10.95;2.45;;;;;;;12.27;100.00;101384.59;5032539;28;20079;-75
2022/09/17 09:33:16;;;;;;;9.50;1.70;;;;;;;12.28;100.00;101370.81;5026161;28;20014;-78
2022/09/17 09:35:43;;;;;;;6.35;1.38;;;;;;;12.37;100.00;101376.78;5031785;28;20372;-79
2022/09/17 09:38:08;;;;;;;7.13;1.25;;;;;;;12.48;100.00;101384.16;5029197;28;20041;-79
2022/09/17 09:40:40;;;;;;;13.10;2.00;;;;;;;12.58;100.00;101386.38;5028792;28;20410;-79
2022/09/17 09:43:16;;;;;;;15.00;1.98;;;;;;;12.61;100.00;101379.69;5047120;28;20267;-79
2022/09/17 09:45:59;;;;;;;8.65;1.30;;;;;;;12.65;100.00;101373.56;5017662;28;20400;-78
2022/09/17 09:48:45;;;;;;;5.55;1.23;;;;;;;12.69;100.00;101379.38;5036541;28;20387;-80
2022/09/17 09:51:16;;;;;;;4.78;1.50;;;;;;;12.70;100.00;101381.03;5027075;28;20516;-79
2022/09/17 09:53:50;;;;;;;7.85;1.40;;;;;;;12.70;100.00;101378.31;5023448;28;20594;-78
2022/09/17 09:56:52;;;;;;;6.57;1.10;;;;;;;12.65;100.00;101380.88;5031072;28;20061;-78
2022/09/17 09:59:18;;;;;;;6.35;0.90;;;;;;;12.55;97.45;101394.97;5021074;28;20065;-79
2022/09/17 10:01:43;;;;;;;5.63;1.17;;;;;;;12.50;98.82;101390.22;5012113;28;20130;-80
2022/09/17 10:04:23;;;;;;;4.68;1.20;;;;;;;12.50;98.24;101384.78;5032742;28;20056;-78
2022/09/17 10:07:01;;;;;;;4.97;0.98;;;;;;;12.52;94.23;101387.28;5037238;28;20075;-79
2022/09/17 10:09:29;;;;;;;6.38;1.15;;;;;;;12.55;97.45;101382.22;5026487;28;20033;-79
2022/09/17 10:11:59;;;;;;;4.68;1.20;;;;;;;12.61;95.57;101377.78;5017963;28;20177;-80
2022/09/17 10:14:30;;;;;;;5.55;1.10;;;;;;;12.66;95.53;101383.34;5038066;28;20069;-78
2022/09/17 10:17:12;;;;;;;4.00;0.77;;;;;;;12.73;95.06;101386.84;5055056;28;20159;-77
2022/09/17 10:19:37;;;;;;;4.05;0.80;;;;;;;12.71;85.22;101374.53;5047729;28;20045;-79
2022/09/17 10:22:24;;;;;;;6.90;1.30;;;;;;;12.75;88.94;101382.00;5029968;28;20468;-78
2022/09/17 10:24:52;;;;;;;4.43;1.20;;;;;;;12.83;90.54;101378.19;5017090;28;20057;-78
2022/09/17 10:27:20;;;;;;;3.08;0.80;;;;;;;12.88;85.58;101381.03;5035170;28;20029;-78
2022/09/17 10:29:48;;;;;;;4.65;1.00;;;;;;;12.99;92.16;101374.00;5030516;28;20040;-83
2022/09/17 10:32:21;;;;;;;3.70;0.90;;;;;;;13.08;88.11;101375.34;5033909;28;20082;-80
2022/09/17 10:34:57;;;;;;;6.80;1.08;;;;;;;13.16;91.17;101376.09;5034849;28;20515;-81
2022/09/17 10:37:42;;;;;;;5.20;1.17;;;;;;;13.11;93.97;101383.03;5034978;28;20070;-81
2022/09/17 10:40:34;;;;;;;3.80;1.10;;;;;;;13.06;100.00;101388.31;5016360;28;20354;-78
2022/09/17 10:43:13;;;;;;;;;;;;;;;13.03;100.00;101388.78;5031356;28;20041;-79
2022/09/17 10:45:42;;;;;;;5.10;0.98;;;;;;;12.77;100.00;101389.91;5033542;28;19948;-80
2022/09/17 10:48:16;;;;;;;2.47;1.02;;;;;;;12.68;100.00;101383.97;5033767;28;20043;-79
2022/09/17 10:50:47;;;;;;;4.35;1.05;;;;;;;12.62;100.00;101375.88;5031005;28;20112;-79
2022/09/17 10:53:15;;;;;;;7.20;0.98;;;;;;;12.65;100.00;101380.88;5017326;28;20096;-79
2022/09/17 10:55:53;;;;;;;7.53;1.08;;;;;;;12.66;100.00;101371.69;5025913;28;20022;-79
2022/09/17 10:59:03;;;;;;;3.80;0.88;;;;;;;12.68;100.00;101374.97;5033518;28;20029;-80
2022/09/17 11:01:47;;;;;;;4.55;1.23;;;;;;;12.63;100.00;101377.56;5039020;28;20071;-77
2022/09/17 11:04:23;;;;;;;5.18;1.17;;;;;;;12.63;100.00;101378.38;5023907;28;20107;-79
2022/09/17 11:06:57;;;;;;;2.67;0.80;;;;;;;12.62;100.00;101382.16;5016716;28;20033;-80
2022/09/17 11:09:54;;;;;;;4.57;0.80;;;;;;;12.61;100.00;101375.06;5033671;28;20170;-78
2022/09/17 11:12:41;;;;;;;4.70;1.02;;;;;;;12.59;100.00;101369.00;5033761;28;20029;-80
2022/09/17 11:15:21;;;;;;;2.72;0.75;;;;;;;12.58;100.00;101368.19;5034751;28;20041;-80
2022/09/17 11:18:22;;;;;;;6.70;0.90;;;;;;;12.58;100.00;101372.81;5016243;28;20033;-78
2022/09/17 11:21:02;;;;;;;5.03;0.80;;;;;;;12.58;100.00;101360.06;5033724;28;20040;-79
2022/09/17 11:24:14;;;;;;;2.55;0.60;;;;;;;12.65;100.00;101354.56;5027822;28;20097;-80
2022/09/17 11:26:54;;;;;;;3.65;0.68;;;;;;;12.67;100.00;101363.31;5034144;28;20112;-77
2022/09/17 11:29:29;;;;;;;4.50;0.98;;;;;;;12.72;100.00;101368.06;5033583;28;20098;-78
2022/09/17 11:32:21;;;;;;;4.28;0.90;;;;;;;12.73;100.00;101353.44;5010593;28;20065;-80
2022/09/17 11:35:09;;;;;;;6.10;0.95;;;;;;;12.80;100.00;101353.34;5014209;28;20535;-79
2022/09/17 11:37:42;;;;;;;4.07;1.20;;;;;;;12.86;100.00;101350.56;4996743;28;20045;-78
2022/09/17 11:40:13;;;;;;;4.97;0.88;;;;;;;12.88;100.00;101359.28;5026084;28;20037;-78
2022/09/17 11:42:46;;;;;;;4.35;0.95;;;;;;;12.92;100.00;101356.94;5015781;28;20396;-77
2022/09/17 11:45:45;;;;;;;4.05;1.13;;;;;;;12.88;100.00;101348.44;5017397;28;20034;-79
2022/09/17 11:48:21;;;;;;;5.00;1.08;;;;;;;12.91;100.00;101352.59;4953138;29;20057;-78
2022/09/17 11:50:57;;;;;;;6.95;1.17;;;;;;;12.84;100.00;101360.78;5031111;28;20428;-78
2022/09/17 11:53:34;;;;;;;5.65;1.10;;;;;;;12.89;100.00;101360.97;5015208;28;20048;-77
2022/09/17 11:56:09;;;;;;;5.55;1.00;;;;;;;12.93;100.00;101359.44;5033196;28;20116;-80
2022/09/17 11:59:00;;;;;;;7.65;1.23;;;;;;;12.99;100.00;101356.88;5026174;28;20504;-75
2022/09/17 12:01:50;;;;;;;2.88;0.90;;;;;;;13.08;100.00;101350.06;5000354;28;20040;-74
2022/09/17 12:04:34;;;;;;;6.28;1.13;;;;;;;13.06;100.00;101346.75;5052833;28;20383;-75
2022/09/17 12:07:34;;;;;;;5.85;1.33;;;;;;;13.09;100.00;101349.00;5035233;28;20041;-78
2022/09/17 12:10:39;;;;;;;4.68;1.20;;;;;;;13.19;100.00;101349.28;5037859;28;20375;-73
2022/09/17 12:13:28;;;;;;;6.30;1.77;;;;;;;13.19;100.00;101343.84;5049148;28;20036;-73
2022/09/17 12:16:10;;;;;;;6.90;1.33;;;;;;;13.23;100.00;101345.03;5044587;28;20026;-74
2022/09/17 12:19:00;;;;;;;8.13;1.38;;;;;;;13.40;100.00;101339.81;5037044;28;20033;-75
2022/09/17 12:21:44;;;;;;;10.25;1.58;;;;;;;13.31;100.00;101327.56;5053189;28;20059;-75
2022/09/17 12:24:14;;;;;;;9.30;1.30;;;;;;;13.40;96.68;101336.25;5035229;28;20364;-77
2022/09/17 12:27:20;;;;;;;8.43;1.70;;;;;;;13.57;91.76;101331.81;5053085;28;20094;-73
2022/09/17 12:29:55;;;;;;;6.55;1.50;;;;;;;13.56;94.64;101332.88;5043451;28;20033;-76
2022/09/17 12:32:31;;;;;;;7.10;1.75;;;;;;;13.57;97.81;101334.56;5052737;28;20027;-74
2022/09/17 12:35:26;;;;;;;8.68;1.92;;;;;;;13.59;100.00;101321.53;5052753;28;20037;-74
2022/09/17 12:38:28;;;;;;;10.30;1.27;;;;;;;13.68;98.76;101318.47;5052742;28;20028;-72
2022/09/17 12:41:05;;;;;;;10.40;1.70;;;;;;;13.74;100.00;101320.25;5042294;28;20098;-71
2022/09/17 12:44:06;;;;;;;7.60;1.60;;;;;;;13.88;100.00;101323.59;5052780;28;20055;-73